Weather at Cortina Airport [CLOSED]

Public forecast

Using degrees Celsius for public forecast. Weather courtesy of forecast.io.

Closest aviation weather report (METAR) to Cortina Airport

Closest report is Dobbiaco - Toblach, 10.3 nm (19.2 km) NNE. Retrieved 2021/05/06 17:55 UTC (1 hour ago):

LIVD 061755Z /////KT 9999 OVC030 07/03 Q1010 RMK OVC VIS MIN 9999

Closest aviation forecast (TAF) to Cortina Airport

Closest forecast is Bolzano Airport, 33.4 nm (61.9 km) WSW. Retrieved 2021/05/06 18:24 UTC (42 minutes ago):

TAF LIPB 061700Z 0618/0718 18007KT 9999 SCT070 BECMG 0711/0713 35010KT